Time;durP1;ratioP1;P1;durP2;ratioP2;P2;SDS_P1;SDS_P2;PMS_P1;PMS_P2;Temp;Humidity;BMP_temperature;BMP_pressure;BME280_temperature;BME280_humidity;BME280_pressure;Samples;Min_cycle;Max_cycle;Signal;HPM_P1;HPM_P2
2022/01/03 00:02:24;;;;;;;;;;;;;;;;;;5040954;28;19972;-78
2022/01/03 00:04:58;;;;;;;;;;;;;;;;;;5035070;28;19921;-78
2022/01/03 00:07:41;;;;;;;;;;;;;;;;;;5033472;28;19928;-79
2022/01/03 00:10:07;;;;;;;;;;;;;;;;;;5033734;28;19916;-79
2022/01/03 00:12:35;;;;;;;;;;;;;;;;;;5052937;28;19925;-78
2022/01/03 00:15:01;;;;;;;;;;;;;;;;;;5035617;28;19944;-78
2022/01/03 00:17:26;;;;;;;;;;;;;;;;;;5034646;28;19978;-78
2022/01/03 00:19:53;;;;;;;;;;;;;;;;;;5051826;28;19927;-78
2022/01/03 00:22:22;;;;;;;;;;;;;;;;;;5051291;28;19921;-77
2022/01/03 00:24:56;;;;;;;;;;;;;;;;;;5034837;28;19928;-79
2022/01/03 00:27:24;;;;;;;;;;;;;;;;;;5035639;28;20038;-77
2022/01/03 00:29:52;;;;;;;;;;;;;;;;;;5035425;28;19929;-77
2022/01/03 00:32:20;;;;;;;;;;;;;;;;;;5035078;28;19978;-78
2022/01/03 00:34:48;;;;;;;;;;;;;;;;;;5035296;28;20293;-78
2022/01/03 00:37:16;;;;;;;;;;;;;;;;;;5035347;28;19921;-78
2022/01/03 00:39:43;;;;;;;;;;;;;;;;;;5052104;28;20397;-78
2022/01/03 00:42:08;;;;;;;;;;;;;;;;;;5035224;28;19921;-79
2022/01/03 00:44:34;;;;;;;;;;;;;;;;;;5055948;28;20368;-78
2022/01/03 00:46:59;;;;;;;;;;;;;;;;;;5059300;28;20333;-78
2022/01/03 00:49:26;;;;;;;;;;;;;;;;;;5057322;28;20360;-78
2022/01/03 00:51:54;;;;;;;;;;;;;;;;;;5064236;28;20299;-78
2022/01/03 00:54:19;;;;;;;;;;;;;;;;;;5042070;28;19932;-78
2022/01/03 00:56:48;;;;;;;;;;;;;;;;;;5037343;28;19914;-78
2022/01/03 00:59:15;;;;;;;;;;;;;;;;;;5037367;28;19975;-79
2022/01/03 01:01:49;;;;;;;;;;;;;;;;;;5037147;28;20016;-79
2022/01/03 01:04:15;;;;;;;;;;;;;;;;;;5036392;28;19917;-79
2022/01/03 01:06:41;;;;;;;;;;;;;;;;;;5037454;28;19979;-78
2022/01/03 01:09:11;;;;;;;;;;;;;;;;;;5037152;28;19917;-78
2022/01/03 01:11:40;;;;;;;;;;;;;;;;;;5037073;28;19957;-78
2022/01/03 01:14:07;;;;;;;;;;;;;;;;;;5035597;28;19916;-78
2022/01/03 01:16:32;;;;;;;;;;;;;;;;;;5052117;28;19916;-78
2022/01/03 01:19:00;;;;;;;;;;;;;;;;;;5056809;28;19917;-78
2022/01/03 01:21:27;;;;;;;;;;;;;;;;;;5056675;28;19995;-76
2022/01/03 01:23:55;;;;;;;;;;;;;;;;;;5038993;28;19913;-77
2022/01/03 01:29:07;;;;;;;;;;;;;;;;;;5056632;28;19924;-78
2022/01/03 01:31:34;;;;;;;;;;;;;;;;;;5055065;28;19917;-78
2022/01/03 01:33:59;;;;;;;;;;;;;;;;;;5056545;28;19940;-78
2022/01/03 01:36:29;;;;;;;;;;;;;;;;;;5056371;28;20326;-78
2022/01/03 01:38:58;;;;;;;;;;;;;;;;;;5038923;28;20346;-78
2022/01/03 01:41:25;;;;;;;;;;;;;;;;;;5042285;28;19956;-78
2022/01/03 01:43:51;;;;;;;;;;;;;;;;;;5035224;28;19913;-78
2022/01/03 01:46:17;;;;;;;;;;;;;;;;;;5036193;28;19940;-78
2022/01/03 01:48:44;;;;;;;;;;;;;;;;;;5036023;28;19924;-78
2022/01/03 01:51:16;;;;;;;;;;;;;;;;;;5041669;28;19927;-78
2022/01/03 01:53:48;;;;;;;;;;;;;;;;;;5069699;28;19916;-78
2022/01/03 01:56:16;;;;;;;;;;;;;;;;;;5018751;28;19963;-78
2022/01/03 01:58:56;;;;;;;;;;;;;;;;;;5036020;28;19917;-78
2022/01/03 02:01:21;;;;;;;;;;;;;;;;;;5035978;28;19924;-78
2022/01/03 02:03:52;;;;;;;;;;;;;;;;;;5034960;28;20354;-79
2022/01/03 02:06:20;;;;;;;;;;;;;;;;;;5035771;28;19917;-78
2022/01/03 02:08:52;;;;;;;;;;;;;;;;;;5050286;28;19913;-78
2022/01/03 02:11:19;;;;;;;;;;;;;;;;;;5038248;28;19920;-78
2022/01/03 02:13:47;;;;;;;;;;;;;;;;;;5055698;28;19920;-78
2022/01/03 02:16:14;;;;;;;;;;;;;;;;;;5038526;28;19924;-78
2022/01/03 02:18:43;;;;;;;;;;;;;;;;;;5055520;28;20273;-78
2022/01/03 02:21:10;;;;;;;;;;;;;;;;;;5055268;28;19917;-78
2022/01/03 02:23:36;;;;;;;;;;;;;;;;;;5055366;28;20227;-78
2022/01/03 02:26:01;;;;;;;;;;;;;;;;;;5055331;28;20008;-78
2022/01/03 02:28:28;;;;;;;;;;;;;;;;;;5037978;28;19912;-79
2022/01/03 02:30:54;;;;;;;;;;;;;;;;;;5055464;28;20219;-79
2022/01/03 02:33:19;;;;;;;;;;;;;;;;;;5055266;28;19912;-77
2022/01/03 02:35:45;;;;;;;;;;;;;;;;;;5037965;28;19912;-78
2022/01/03 02:38:12;;;;;;;;;;;;;;;;;;5039443;28;20346;-80
2022/01/03 02:40:39;;;;;;;;;;;;;;;;;;5035304;28;19913;-78
2022/01/03 02:43:05;;;;;;;;;;;;;;;;;;5039429;28;20011;-78
2022/01/03 02:45:30;;;;;;;;;;;;;;;;;;5035935;28;20004;-78
2022/01/03 02:47:59;;;;;;;;;;;;;;;;;;5055035;28;19977;-77
2022/01/03 02:50:25;;;;;;;;;;;;;;;;;;5054981;28;20017;-79
2022/01/03 02:52:51;;;;;;;;;;;;;;;;;;5071649;28;19916;-78
2022/01/03 02:55:18;;;;;;;;;;;;;;;;;;5074003;28;19919;-79
2022/01/03 02:57:47;;;;;;;;;;;;;;;;;;5062940;28;19974;-78
2022/01/03 03:00:17;;;;;;;;;;;;;;;;;;5054227;28;20277;-78
2022/01/03 03:02:42;;;;;;;;;;;;;;;;;;5040348;28;19917;-78
2022/01/03 03:05:10;;;;;;;;;;;;;;;;;;5048714;28;19921;-79
2022/01/03 03:07:36;;;;;;;;;;;;;;;;;;5053901;28;19912;-79
2022/01/03 03:10:06;;;;;;;;;;;;;;;;;;5054768;28;20264;-79
2022/01/03 03:12:34;;;;;;;;;;;;;;;;;;5037323;28;19921;-79
2022/01/03 03:15:02;;;;;;;;;;;;;;;;;;5037228;28;20015;-78
2022/01/03 03:17:29;;;;;;;;;;;;;;;;;;5054468;28;20026;-78
2022/01/03 03:19:58;;;;;;;;;;;;;;;;;;5036987;28;19912;-79
2022/01/03 03:22:26;;;;;;;;;;;;;;;;;;5020514;28;19924;-79
2022/01/03 03:24:55;;;;;;;;;;;;;;;;;;5037286;28;19924;-79
2022/01/03 03:27:21;;;;;;;;;;;;;;;;;;5036662;28;19913;-79
2022/01/03 03:29:47;;;;;;;;;;;;;;;;;;5036761;28;19912;-78
2022/01/03 03:32:15;;;;;;;;;;;;;;;;;;5053960;28;19927;-78
2022/01/03 03:34:40;;;;;;;;;;;;;;;;;;5036886;28;19924;-79
2022/01/03 03:37:06;;;;;;;;;;;;;;;;;;5054300;28;19913;-78
2022/01/03 03:39:34;;;;;;;;;;;;;;;;;;5036813;28;19917;-79
2022/01/03 03:42:03;;;;;;;;;;;;;;;;;;5054182;28;19917;-78
2022/01/03 03:44:31;;;;;;;;;;;;;;;;;;5036993;28;19921;-78
2022/01/03 03:46:56;;;;;;;;;;;;;;;;;;5035210;28;19925;-78
2022/01/03 03:49:21;;;;;;;;;;;;;;;;;;5034209;28;19923;-78
2022/01/03 03:51:49;;;;;;;;;;;;;;;;;;5050176;28;19912;-78
2022/01/03 03:54:14;;;;;;;;;;;;;;;;;;5074848;28;20007;-78
2022/01/03 03:56:44;;;;;;;;;;;;;;;;;;5074250;28;20364;-77
2022/01/03 03:59:09;;;;;;;;;;;;;;;;;;5059554;28;20270;-77
2022/01/03 04:01:35;;;;;;;;;;;;;;;;;;5034305;28;19913;-77
2022/01/03 04:04:02;;;;;;;;;;;;;;;;;;5034259;28;19924;-77
2022/01/03 04:06:30;;;;;;;;;;;;;;;;;;5033198;28;19913;-78
2022/01/03 04:08:55;;;;;;;;;;;;;;;;;;5033858;28;19913;-78
2022/01/03 04:11:25;;;;;;;;;;;;;;;;;;5033943;28;20413;-78
2022/01/03 04:13:51;;;;;;;;;;;;;;;;;;5028859;28;19928;-77
2022/01/03 04:16:16;;;;;;;;;;;;;;;;;;5033841;28;19914;-77
2022/01/03 04:18:41;;;;;;;;;;;;;;;;;;5037726;28;19913;-78
2022/01/03 04:21:06;;;;;;;;;;;;;;;;;;5037044;28;19913;-77
2022/01/03 04:23:32;;;;;;;;;;;;;;;;;;5036887;28;19913;-78
2022/01/03 04:25:57;;;;;;;;;;;;;;;;;;5039610;28;20019;-78
2022/01/03 04:28:22;;;;;;;;;;;;;;;;;;5057787;28;19912;-78
2022/01/03 04:30:51;;;;;;;;;;;;;;;;;;5056810;28;19913;-78
2022/01/03 04:33:16;;;;;;;;;;;;;;;;;;5057646;28;19913;-78
2022/01/03 04:35:41;;;;;;;;;;;;;;;;;;5057690;28;19967;-79
2022/01/03 04:38:10;;;;;;;;;;;;;;;;;;5040041;28;19999;-78
2022/01/03 04:40:35;;;;;;;;;;;;;;;;;;5054667;28;19917;-77
2022/01/03 04:43:05;;;;;;;;;;;;;;;;;;5039537;28;19916;-78
2022/01/03 04:45:33;;;;;;;;;;;;;;;;;;5039842;28;19921;-78
2022/01/03 04:47:58;;;;;;;;;;;;;;;;;;5057398;28;19913;-78
2022/01/03 04:50:23;;;;;;;;;;;;;;;;;;5057432;28;19913;-77
2022/01/03 04:52:50;;;;;;;;;;;;;;;;;;5073575;28;19917;-79
2022/01/03 04:55:18;;;;;;;;;;;;;;;;;;5068754;28;19917;-79
2022/01/03 04:57:43;;;;;;;;;;;;;;;;;;5037524;28;20003;-80
2022/01/03 05:00:09;;;;;;;;;;;;;;;;;;5019624;28;19960;-78
2022/01/03 05:02:37;;;;;;;;;;;;;;;;;;5056145;28;19920;-78
2022/01/03 05:05:06;;;;;;;;;;;;;;;;;;5056213;28;19999;-80
2022/01/03 05:07:36;;;;;;;;;;;;;;;;;;5039708;28;19912;-79
2022/01/03 05:10:02;;;;;;;;;;;;;;;;;;5056518;28;19924;-76
2022/01/03 05:12:27;;;;;;;;;;;;;;;;;;5056471;28;19921;-77
2022/01/03 05:14:57;;;;;;;;;;;;;;;;;;5056825;28;20310;-75
2022/01/03 05:17:23;;;;;;;;;;;;;;;;;;5037407;28;19925;-76
2022/01/03 05:19:50;;;;;;;;;;;;;;;;;;5037667;28;19926;-76
2022/01/03 05:22:15;;;;;;;;;;;;;;;;;;5057002;28;19912;-76
2022/01/03 05:24:46;;;;;;;;;;;;;;;;;;5039974;28;19927;-76
2022/01/03 05:27:11;;;;;;;;;;;;;;;;;;5056952;28;19912;-77
2022/01/03 05:29:36;;;;;;;;;;;;;;;;;;5055628;28;19912;-77
2022/01/03 05:32:04;;;;;;;;;;;;;;;;;;5038520;28;19924;-76
2022/01/03 05:34:31;;;;;;;;;;;;;;;;;;5056419;28;19967;-76
2022/01/03 05:36:59;;;;;;;;;;;;;;;;;;5039200;28;20348;-79
2022/01/03 05:39:24;;;;;;;;;;;;;;;;;;5056562;28;19916;-78
2022/01/03 05:41:49;;;;;;;;;;;;;;;;;;5039216;28;20022;-77
2022/01/03 05:44:14;;;;;;;;;;;;;;;;;;5056484;28;20018;-77
2022/01/03 05:46:40;;;;;;;;;;;;;;;;;;5039314;28;19971;-78
2022/01/03 05:49:07;;;;;;;;;;;;;;;;;;5028556;28;19923;-77
2022/01/03 05:51:32;;;;;;;;;;;;;;;;;;5038485;28;19923;-77
2022/01/03 05:53:57;;;;;;;;;;;;;;;;;;5038691;28;19913;-78
2022/01/03 05:56:22;;;;;;;;;;;;;;;;;;5055952;28;20416;-77
2022/01/03 05:58:51;;;;;;;;;;;;;;;;;;5034049;28;19917;-78
2022/01/03 06:01:17;;;;;;;;;;;;;;;;;;5036043;28;19960;-78
2022/01/03 06:03:42;;;;;;;;;;;;;;;;;;5045955;28;19955;-78
2022/01/03 06:08:37;;;;;;;;;;;;;;;;;;5056083;28;19917;-78
2022/01/03 06:11:07;;;;;;;;;;;;;;;;;;5055745;28;20007;-78
2022/01/03 06:13:32;;;;;;;;;;;;;;;;;;5037534;28;19916;-78
2022/01/03 06:15:58;;;;;;;;;;;;;;;;;;5055634;28;20351;-78
2022/01/03 06:18:23;;;;;;;;;;;;;;;;;;5055601;28;20247;-78
2022/01/03 06:20:48;;;;;;;;;;;;;;;;;;5054619;28;19917;-78
2022/01/03 06:23:14;;;;;;;;;;;;;;;;;;5054702;28;19912;-78
2022/01/03 06:25:39;;;;;;;;;;;;;;;;;;5055512;28;19916;-78
2022/01/03 06:28:09;;;;;;;;;;;;;;;;;;5053715;28;19975;-78
2022/01/03 06:30:37;;;;;;;;;;;;;;;;;;5055495;28;19944;-78
2022/01/03 06:33:06;;;;;;;;;;;;;;;;;;5054370;28;19913;-79
2022/01/03 06:35:32;;;;;;;;;;;;;;;;;;5055269;28;19913;-78
2022/01/03 06:37:57;;;;;;;;;;;;;;;;;;5055665;28;19913;-79
2022/01/03 06:40:22;;;;;;;;;;;;;;;;;;5054226;28;19913;-80
2022/01/03 06:42:48;;;;;;;;;;;;;;;;;;5040562;28;20345;-78
2022/01/03 06:45:13;;;;;;;;;;;;;;;;;;5034975;28;19921;-79
2022/01/03 06:47:40;;;;;;;;;;;;;;;;;;5037939;28;20327;-78
2022/01/03 06:50:08;;;;;;;;;;;;;;;;;;5019440;28;20246;-78
2022/01/03 06:52:33;;;;;;;;;;;;;;;;;;5034978;28;19913;-78
2022/01/03 06:55:01;;;;;;;;;;;;;;;;;;5034970;28;20380;-78
2022/01/03 06:57:29;;;;;;;;;;;;;;;;;;5034907;28;19913;-79
2022/01/03 06:59:56;;;;;;;;;;;;;;;;;;5035658;28;19924;-79
2022/01/03 07:02:26;;;;;;;;;;;;;;;;;;5034152;28;19913;-78
2022/01/03 07:04:55;;;;;;;;;;;;;;;;;;5034795;28;19964;-78
2022/01/03 07:07:20;;;;;;;;;;;;;;;;;;5035090;28;20361;-78
2022/01/03 07:09:46;;;;;;;;;;;;;;;;;;5034310;28;19913;-80
2022/01/03 07:12:11;;;;;;;;;;;;;;;;;;5038365;28;19928;-78
2022/01/03 07:19:50;;;;;;;;;;;;;;;;;;5053773;28;19959;-78
2022/01/03 07:22:15;;;;;;;;;;;;;;;;;;5053613;28;19913;-78
2022/01/03 07:24:40;;;;;;;;;;;;;;;;;;5053539;28;20011;-77
2022/01/03 07:27:09;;;;;;;;;;;;;;;;;;5051231;28;19947;-78
2022/01/03 07:29:42;;;;;;;;;;;;;;;;;;5053519;28;19920;-76
2022/01/03 07:32:07;;;;;;;;;;;;;;;;;;5054718;28;19923;-75
2022/01/03 07:34:35;;;;;;;;;;;;;;;;;;5054282;28;20015;-76
2022/01/03 07:37:03;;;;;;;;;;;;;;;;;;5054092;28;19924;-76
2022/01/03 07:39:34;;;;;;;;;;;;;;;;;;5053927;28;19917;-76
2022/01/03 07:42:00;;;;;;;;;;;;;;;;;;5054210;28;19913;-76
2022/01/03 07:44:25;;;;;;;;;;;;;;;;;;5052965;28;19981;-77
2022/01/03 07:46:54;;;;;;;;;;;;;;;;;;5036497;28;19917;-78
2022/01/03 07:49:19;;;;;;;;;;;;;;;;;;5064123;28;19952;-78
2022/01/03 07:51:44;;;;;;;;;;;;;;;;;;5057824;28;20029;-78
2022/01/03 07:54:10;;;;;;;;;;;;;;;;;;5053859;28;19917;-78
2022/01/03 07:56:35;;;;;;;;;;;;;;;;;;5036708;28;19921;-78
2022/01/03 07:59:00;;;;;;;;;;;;;;;;;;5053939;28;19913;-78
2022/01/03 08:01:26;;;;;;;;;;;;;;;;;;5053023;28;19936;-78
2022/01/03 08:03:56;;;;;;;;;;;;;;;;;;5053876;28;19940;-78
2022/01/03 08:06:23;;;;;;;;;;;;;;;;;;5050741;28;20015;-78
2022/01/03 08:08:50;;;;;;;;;;;;;;;;;;5033860;28;19917;-78
2022/01/03 08:11:18;;;;;;;;;;;;;;;;;;5049351;28;19921;-78
2022/01/03 08:13:43;;;;;;;;;;;;;;;;;;5034010;28;19964;-78
2022/01/03 08:16:09;;;;;;;;;;;;;;;;;;5034138;28;19917;-79
2022/01/03 08:18:36;;;;;;;;;;;;;;;;;;5049642;28;19913;-79
2022/01/03 08:21:04;;;;;;;;;;;;;;;;;;5046496;28;19917;-80
2022/01/03 08:23:30;;;;;;;;;;;;;;;;;;5052065;28;19932;-78
2022/01/03 08:25:56;;;;;;;;;;;;;;;;;;5040612;28;20020;-79
2022/01/03 08:28:26;;;;;;;;;;;;;;;;;;5033916;28;19960;-78
2022/01/03 08:30:53;;;;;;;;;;;;;;;;;;5034110;28;19912;-79
2022/01/03 08:33:21;;;;;;;;;;;;;;;;;;5033937;28;20014;-78
2022/01/03 08:35:46;;;;;;;;;;;;;;;;;;5033778;28;19913;-78
2022/01/03 08:38:13;;;;;;;;;;;;;;;;;;5040086;28;20234;-78
2022/01/03 08:40:41;;;;;;;;;;;;;;;;;;5053827;28;19913;-78
2022/01/03 08:43:09;;;;;;;;;;;;;;;;;;5053773;28;19944;-78
2022/01/03 08:45:35;;;;;;;;;;;;;;;;;;5053418;28;20011;-78
2022/01/03 08:48:00;;;;;;;;;;;;;;;;;;5053646;28;20007;-78
2022/01/03 08:50:25;;;;;;;;;;;;;;;;;;5037993;28;20350;-78
2022/01/03 08:52:50;;;;;;;;;;;;;;;;;;5033673;28;20015;-78
2022/01/03 08:55:20;;;;;;;;;;;;;;;;;;5034066;28;19913;-77
2022/01/03 08:57:51;;;;;;;;;;;;;;;;;;5012039;28;19947;-79
2022/01/03 09:00:18;;;;;;;;;;;;;;;;;;5053612;28;19920;-77
2022/01/03 09:02:44;;;;;;;;;;;;;;;;;;5036281;28;19951;-77
2022/01/03 09:05:09;;;;;;;;;;;;;;;;;;5068390;28;19925;-79
2022/01/03 09:07:39;;;;;;;;;;;;;;;;;;5057140;28;20013;-78
2022/01/03 09:10:05;;;;;;;;;;;;;;;;;;5056847;28;19919;-78
2022/01/03 09:12:30;;;;;;;;;;;;;;;;;;5056982;28;20375;-79
2022/01/03 09:14:58;;;;;;;;;;;;;;;;;;5056891;28;19923;-79
2022/01/03 09:17:23;;;;;;;;;;;;;;;;;;5035305;28;19917;-78
2022/01/03 09:19:49;;;;;;;;;;;;;;;;;;5056097;28;19971;-78
2022/01/03 09:22:21;;;;;;;;;;;;;;;;;;5056746;28;20365;-78
2022/01/03 09:24:54;;;;;;;;;;;;;;;;;;5056602;28;19933;-79
2022/01/03 09:30:06;;;;;;;;;;;;;;;;;;5056584;28;19923;-78
2022/01/03 09:32:31;;;;;;;;;;;;;;;;;;5039071;28;19916;-79
2022/01/03 09:35:02;;;;;;;;;;;;;;;;;;5039061;28;19913;-78
2022/01/03 09:37:30;;;;;;;;;;;;;;;;;;5039834;28;19999;-78
2022/01/03 09:39:55;;;;;;;;;;;;;;;;;;5056268;28;19913;-78
2022/01/03 09:42:26;;;;;;;;;;;;;;;;;;5057036;28;20249;-78
2022/01/03 09:44:51;;;;;;;;;;;;;;;;;;5038794;28;19921;-78
2022/01/03 09:47:19;;;;;;;;;;;;;;;;;;5056240;28;20372;-79
2022/01/03 09:49:45;;;;;;;;;;;;;;;;;;5055218;28;20007;-78
2022/01/03 09:52:10;;;;;;;;;;;;;;;;;;5056122;28;20058;-79
2022/01/03 09:54:38;;;;;;;;;;;;;;;;;;5038624;28;19913;-78
2022/01/03 09:57:04;;;;;;;;;;;;;;;;;;5038716;28;19964;-78
2022/01/03 09:59:32;;;;;;;;;;;;;;;;;;5039186;28;20021;-80
2022/01/03 10:01:58;;;;;;;;;;;;;;;;;;5056140;28;20365;-78
2022/01/03 10:04:23;;;;;;;;;;;;;;;;;;5056032;28;19923;-78
2022/01/03 10:06:51;;;;;;;;;;;;;;;;;;5056712;28;20003;-78
2022/01/03 10:09:17;;;;;;;;;;;;;;;;;;5056403;28;19913;-78
2022/01/03 10:11:45;;;;;;;;;;;;;;;;;;5055359;28;20003;-79
2022/01/03 10:14:15;;;;;;;;;;;;;;;;;;5055316;28;19913;-78
2022/01/03 10:16:43;;;;;;;;;;;;;;;;;;5055905;28;20261;-78
2022/01/03 10:19:11;;;;;;;;;;;;;;;;;;5057745;28;19921;-78
2022/01/03 10:21:40;;;;;;;;;;;;;;;;;;5055665;28;19924;-78
2022/01/03 10:24:06;;;;;;;;;;;;;;;;;;5056028;28;20362;-78
2022/01/03 10:26:34;;;;;;;;;;;;;;;;;;5055101;28;19971;-78
2022/01/03 10:29:09;;;;;;;;;;;;;;;;;;5054577;28;19921;-78
2022/01/03 10:31:34;;;;;;;;;;;;;;;;;;5055959;28;19923;-78
2022/01/03 10:34:11;;;;;;;;;;;;;;;;;;5054953;28;19956;-78
2022/01/03 10:36:37;;;;;;;;;;;;;;;;;;5048442;28;19986;-79
2022/01/03 10:39:11;;;;;;;;;;;;;;;;;;5038803;28;19917;-79
2022/01/03 10:41:36;;;;;;;;;;;;;;;;;;5035285;28;20342;-78
2022/01/03 10:44:04;;;;;;;;;;;;;;;;;;5048139;28;19917;-79
2022/01/03 10:49:39;;;;;;;;;;;;;;;;;;5051376;28;19989;-79
2022/01/03 10:52:15;;;;;;;;;;;;;;;;;;5071945;28;19922;-78
2022/01/03 10:54:43;;;;;;;;;;;;;;;;;;5018007;28;20346;-78
2022/01/03 10:57:14;;;;;;;;;;;;;;;;;;5050883;28;20378;-77
2022/01/03 10:59:39;;;;;;;;;;;;;;;;;;5050451;28;19913;-78
2022/01/03 11:02:10;;;;;;;;;;;;;;;;;;5035290;28;19913;-77
2022/01/03 11:04:50;;;;;;;;;;;;;;;;;;5036789;28;20613;-77
2022/01/03 11:12:49;;;;;;;;;;;;;;;;;;5048337;28;19920;-77
2022/01/03 11:15:20;;;;;;;;;;;;;;;;;;5050474;28;20349;-79
2022/01/03 11:17:47;;;;;;;;;;;;;;;;;;5037007;28;19971;-78
2022/01/03 11:20:20;;;;;;;;;;;;;;;;;;5054333;28;19916;-80
2022/01/03 11:22:47;;;;;;;;;;;;;;;;;;5054695;28;20103;-79
2022/01/03 11:25:12;;;;;;;;;;;;;;;;;;5054670;28;19947;-80
2022/01/03 11:27:40;;;;;;;;;;;;;;;;;;5053777;28;19912;-77
2022/01/03 11:30:09;;;;;;;;;;;;;;;;;;5054754;28;20003;-80
2022/01/03 11:32:36;;;;;;;;;;;;;;;;;;5054542;28;20446;-79
2022/01/03 11:35:04;;;;;;;;;;;;;;;;;;5036640;28;19917;-79
2022/01/03 11:37:34;;;;;;;;;;;;;;;;;;5050569;28;20087;-78
2022/01/03 11:40:02;;;;;;;;;;;;;;;;;;5034464;28;19917;-78
2022/01/03 11:42:30;;;;;;;;;;;;;;;;;;5053226;28;20012;-80
2022/01/03 11:44:57;;;;;;;;;;;;;;;;;;5037582;28;19921;-79
2022/01/03 11:47:27;;;;;;;;;;;;;;;;;;5049587;28;20124;-78
2022/01/03 11:49:54;;;;;;;;;;;;;;;;;;5065172;28;19928;-79
2022/01/03 11:52:24;;;;;;;;;;;;;;;;;;5074218;28;19959;-78
2022/01/03 11:54:51;;;;;;;;;;;;;;;;;;5073573;28;19928;-79
2022/01/03 11:57:39;;;;;;;;;;;;;;;;;;5023315;28;19928;-79
2022/01/03 12:05:49;;;;;;;;;;;;;;;;;;5057204;28;20029;-80
2022/01/03 12:08:29;;;;;;;;;;;;;;;;;;5073627;28;20366;-79
2022/01/03 12:10:55;;;;;;;;;;;;;;;;;;5042650;28;20007;-80
2022/01/03 12:13:22;;;;;;;;;;;;;;;;;;5050070;28;20333;-80
2022/01/03 12:16:04;;;;;;;;;;;;;;;;;;5016750;28;19935;-81
2022/01/03 12:18:30;;;;;;;;;;;;;;;;;;5021937;28;19964;-79
2022/01/03 12:20:55;;;;;;;;;;;;;;;;;;5054551;28;19963;-81
2022/01/03 12:23:37;;;;;;;;;;;;;;;;;;5053612;28;20262;-78
2022/01/03 12:26:11;;;;;;;;;;;;;;;;;;5054492;28;19924;-80
2022/01/03 12:28:58;;;;;;;;;;;;;;;;;;5053977;28;19916;-79
2022/01/03 12:31:23;;;;;;;;;;;;;;;;;;5054385;28;19913;-82
2022/01/03 12:34:15;;;;;;;;;;;;;;;;;;5036862;28;19919;-81
2022/01/03 12:36:40;;;;;;;;;;;;;;;;;;5031625;28;19921;-83
2022/01/03 12:39:07;;;;;;;;;;;;;;;;;;5033444;28;19917;-81
2022/01/03 12:41:39;;;;;;;;;;;;;;;;;;5039677;28;19974;-81
2022/01/03 12:44:30;;;;;;;;;;;;;;;;;;5054493;28;20285;-82
2022/01/03 12:47:15;;;;;;;;;;;;;;;;;;5053097;28;20362;-82
2022/01/03 12:49:40;;;;;;;;;;;;;;;;;;5057177;28;19932;-79
2022/01/03 12:52:12;;;;;;;;;;;;;;;;;;5019792;28;19913;-79
2022/01/03 12:54:40;;;;;;;;;;;;;;;;;;5039463;28;19947;-80
2022/01/03 12:57:15;;;;;;;;;;;;;;;;;;5039118;28;20353;-79
2022/01/03 12:59:43;;;;;;;;;;;;;;;;;;5054270;28;20269;-78
2022/01/03 13:02:25;;;;;;;;;;;;;;;;;;5057256;28;20238;-78
2022/01/03 13:04:53;;;;;;;;;;;;;;;;;;5038346;28;20531;-79
2022/01/03 13:07:21;;;;;;;;;;;;;;;;;;5036751;28;20051;-79
2022/01/03 13:09:49;;;;;;;;;;;;;;;;;;5055803;28;19913;-79
2022/01/03 13:12:15;;;;;;;;;;;;;;;;;;5039495;28;20021;-80
2022/01/03 13:14:40;;;;;;;;;;;;;;;;;;5055945;28;19917;-80
2022/01/03 13:17:05;;;;;;;;;;;;;;;;;;5055263;28;19924;-80
2022/01/03 13:19:43;;;;;;;;;;;;;;;;;;5054238;28;20003;-81
2022/01/03 13:22:10;;;;;;;;;;;;;;;;;;5037294;28;20347;-80
2022/01/03 13:24:39;;;;;;;;;;;;;;;;;;5035991;28;19913;-78
2022/01/03 13:27:06;;;;;;;;;;;;;;;;;;5024076;28;20365;-79
2022/01/03 13:29:54;;;;;;;;;;;;;;;;;;5019585;28;19917;-79
2022/01/03 13:32:20;;;;;;;;;;;;;;;;;;5036787;28;19967;-80
2022/01/03 13:34:46;;;;;;;;;;;;;;;;;;5019723;28;19913;-83
2022/01/03 13:37:11;;;;;;;;;;;;;;;;;;5019862;28;19920;-81
2022/01/03 13:39:38;;;;;;;;;;;;;;;;;;5036428;28;19940;-81
2022/01/03 13:42:11;;;;;;;;;;;;;;;;;;5038289;28;19974;-81
2022/01/03 13:50:16;;;;;;;;;;;;;;;;;;5055816;28;19974;-82
2022/01/03 13:52:42;;;;;;;;;;;;;;;;;;5063580;28;19917;-82
2022/01/03 13:55:14;;;;;;;;;;;;;;;;;;5039257;28;19944;-84
2022/01/03 13:57:39;;;;;;;;;;;;;;;;;;5056119;28;19927;-79
2022/01/03 14:00:07;;;;;;;;;;;;;;;;;;5056177;28;20250;-80
2022/01/03 14:02:33;;;;;;;;;;;;;;;;;;5037821;28;20366;-80
2022/01/03 14:04:58;;;;;;;;;;;;;;;;;;5055918;28;19924;-81
2022/01/03 14:07:24;;;;;;;;;;;;;;;;;;5022413;28;19916;-80
2022/01/03 14:10:08;;;;;;;;;;;;;;;;;;5049835;28;20366;-82
2022/01/03 14:12:35;;;;;;;;;;;;;;;;;;5036272;28;19913;-80
2022/01/03 14:15:02;;;;;;;;;;;;;;;;;;5035447;28;20465;-79
2022/01/03 14:17:30;;;;;;;;;;;;;;;;;;5041331;28;19927;-81
2022/01/03 14:19:59;;;;;;;;;;;;;;;;;;5054351;28;19913;-82
2022/01/03 14:22:30;;;;;;;;;;;;;;;;;;5054083;28;20395;-81
2022/01/03 14:25:02;;;;;;;;;;;;;;;;;;5054868;28;19913;-79
2022/01/03 14:27:30;;;;;;;;;;;;;;;;;;5037230;28;19927;-82
2022/01/03 14:30:12;;;;;;;;;;;;;;;;;;5055041;28;19938;-81
2022/01/03 14:32:38;;;;;;;;;;;;;;;;;;5054962;28;19964;-81
2022/01/03 14:35:08;;;;;;;;;;;;;;;;;;5037482;28;19912;-81
2022/01/03 14:37:35;;;;;;;;;;;;;;;;;;5054403;28;19913;-80
2022/01/03 14:40:01;;;;;;;;;;;;;;;;;;5052713;28;19954;-80
2022/01/03 14:42:29;;;;;;;;;;;;;;;;;;5041086;28;19917;-79
2022/01/03 14:44:54;;;;;;;;;;;;;;;;;;5036250;28;20014;-80
2022/01/03 14:47:24;;;;;;;;;;;;;;;;;;5045212;28;19995;-81
2022/01/03 14:50:01;;;;;;;;;;;;;;;;;;5038180;28;20015;-80
2022/01/03 14:52:32;;;;;;;;;;;;;;;;;;5034026;28;19939;-80
2022/01/03 14:55:00;;;;;;;;;;;;;;;;;;5056275;28;19984;-79
2022/01/03 14:57:29;;;;;;;;;;;;;;;;;;5037607;28;20003;-80
2022/01/03 14:59:58;;;;;;;;;;;;;;;;;;5051806;28;19913;-80
2022/01/03 15:02:24;;;;;;;;;;;;;;;;;;5053754;28;19916;-79
2022/01/03 15:04:50;;;;;;;;;;;;;;;;;;5045863;28;20328;-80
2022/01/03 15:07:16;;;;;;;;;;;;;;;;;;5054611;28;20353;-79
2022/01/03 15:09:46;;;;;;;;;;;;;;;;;;5044975;28;19913;-81
2022/01/03 15:12:11;;;;;;;;;;;;;;;;;;5054143;28;19933;-79
2022/01/03 15:14:37;;;;;;;;;;;;;;;;;;5054714;28;19970;-80
2022/01/03 15:17:04;;;;;;;;;;;;;;;;;;5054350;28;20338;-80
2022/01/03 15:19:30;;;;;;;;;;;;;;;;;;5054152;28;20023;-81
2022/01/03 15:21:57;;;;;;;;;;;;;;;;;;5036174;28;20326;-81
2022/01/03 15:24:23;;;;;;;;;;;;;;;;;;5052350;28;19924;-82
2022/01/03 15:26:48;;;;;;;;;;;;;;;;;;5043283;28;20247;-81
2022/01/03 15:29:13;;;;;;;;;;;;;;;;;;5054300;28;19914;-81
2022/01/03 15:31:39;;;;;;;;;;;;;;;;;;5034400;28;19912;-82
2022/01/03 15:34:06;;;;;;;;;;;;;;;;;;5034573;28;20250;-80
2022/01/03 15:36:34;;;;;;;;;;;;;;;;;;5054368;28;20042;-81
2022/01/03 15:39:05;;;;;;;;;;;;;;;;;;5036496;28;20023;-81
2022/01/03 15:41:31;;;;;;;;;;;;;;;;;;5035787;28;19978;-81
2022/01/03 15:43:56;;;;;;;;;;;;;;;;;;5020391;28;19952;-80
2022/01/03 15:46:22;;;;;;;;;;;;;;;;;;5054032;28;19921;-81
2022/01/03 15:48:47;;;;;;;;;;;;;;;;;;5020391;28;19998;-80
2022/01/03 15:51:18;;;;;;;;;;;;;;;;;;5033488;28;19940;-81
2022/01/03 15:53:43;;;;;;;;;;;;;;;;;;5058222;28;19917;-80
2022/01/03 15:56:09;;;;;;;;;;;;;;;;;;5032823;28;19924;-80
2022/01/03 15:58:36;;;;;;;;;;;;;;;;;;5032964;28;19917;-79
2022/01/03 16:01:02;;;;;;;;;;;;;;;;;;5038842;28;19960;-79
2022/01/03 16:03:27;;;;;;;;;;;;;;;;;;5054506;28;19940;-80
2022/01/03 16:05:55;;;;;;;;;;;;;;;;;;5054626;28;19921;-79
2022/01/03 16:08:21;;;;;;;;;;;;;;;;;;5037285;28;19912;-80
2022/01/03 16:10:48;;;;;;;;;;;;;;;;;;5034734;28;19912;-80
2022/01/03 16:13:14;;;;;;;;;;;;;;;;;;5049149;28;20004;-81
2022/01/03 16:15:39;;;;;;;;;;;;;;;;;;5058307;28;20048;-79
2022/01/03 16:18:05;;;;;;;;;;;;;;;;;;5051835;28;19913;-80
2022/01/03 16:20:30;;;;;;;;;;;;;;;;;;5052389;28;19916;-80
2022/01/03 16:22:55;;;;;;;;;;;;;;;;;;5047999;28;19917;-80
2022/01/03 16:25:23;;;;;;;;;;;;;;;;;;5052191;28;20016;-80
2022/01/03 16:27:49;;;;;;;;;;;;;;;;;;5052674;28;19944;-80
2022/01/03 16:30:16;;;;;;;;;;;;;;;;;;5036618;28;19967;-80
2022/01/03 16:32:43;;;;;;;;;;;;;;;;;;5051064;28;19931;-79
2022/01/03 16:35:11;;;;;;;;;;;;;;;;;;5039784;28;19977;-79
2022/01/03 16:37:43;;;;;;;;;;;;;;;;;;5040169;28;20007;-80
2022/01/03 16:40:11;;;;;;;;;;;;;;;;;;5057649;28;19913;-79
2022/01/03 16:42:37;;;;;;;;;;;;;;;;;;5039266;28;19920;-79
2022/01/03 16:45:05;;;;;;;;;;;;;;;;;;5041271;28;20357;-78
2022/01/03 16:47:36;;;;;;;;;;;;;;;;;;5024087;28;19916;-78
2022/01/03 16:50:05;;;;;;;;;;;;;;;;;;5052579;28;19960;-79
2022/01/03 16:52:30;;;;;;;;;;;;;;;;;;5044772;28;19948;-79
2022/01/03 16:54:56;;;;;;;;;;;;;;;;;;5040037;28;19992;-80
2022/01/03 16:57:24;;;;;;;;;;;;;;;;;;5057523;28;20368;-79
2022/01/03 16:59:49;;;;;;;;;;;;;;;;;;5039810;28;19932;-79
2022/01/03 17:02:21;;;;;;;;;;;;;;;;;;5058272;28;20330;-79
2022/01/03 17:04:49;;;;;;;;;;;;;;;;;;5057758;28;19913;-80
2022/01/03 17:07:16;;;;;;;;;;;;;;;;;;5057834;28;19927;-81
2022/01/03 17:09:44;;;;;;;;;;;;;;;;;;5048913;28;19943;-81
2022/01/03 17:12:10;;;;;;;;;;;;;;;;;;5043644;28;19921;-80
2022/01/03 17:14:38;;;;;;;;;;;;;;;;;;5038201;28;19949;-80
2022/01/03 17:17:03;;;;;;;;;;;;;;;;;;5025443;28;20042;-81
2022/01/03 17:19:34;;;;;;;;;;;;;;;;;;5024964;28;19917;-81
2022/01/03 17:21:59;;;;;;;;;;;;;;;;;;5041625;28;19936;-80
2022/01/03 17:24:24;;;;;;;;;;;;;;;;;;5056947;28;19913;-80